Time;durP1;ratioP1;P1;durP2;ratioP2;P2;SDS_P1;SDS_P2;PMS_P1;PMS_P2;Temp;Humidity;BMP_temperature;BMP_pressure;BME280_temperature;BME280_humidity;BME280_pressure;Samples;Min_cycle;Max_cycle;Signal;HPM_P1;HPM_P2
2021/04/09 00:02:28;;;;;;;11.50;7.90;;;;;;;5.44;46.12;100531.09;10361977;28;20305;-56
2021/04/09 00:07:29;;;;;;;10.88;8.10;;;;;;;5.41;46.32;100530.44;10357943;28;20123;-57
2021/04/09 00:12:32;;;;;;;9.88;8.07;;;;;;;5.34;46.49;100516.69;10365612;28;20055;-57
2021/04/09 00:17:33;;;;;;;9.98;8.30;;;;;;;5.39;46.33;100527.00;10364456;28;20060;-57
2021/04/09 00:22:34;;;;;;;11.93;9.13;;;;;;;5.40;46.74;100524.28;10368919;28;20060;-61
2021/04/09 00:27:36;;;;;;;10.00;8.05;;;;;;;5.34;47.31;100519.34;10367679;28;20053;-57
2021/04/09 00:32:37;;;;;;;10.02;8.10;;;;;;;5.29;47.25;100506.38;10365562;28;20060;-57
2021/04/09 00:37:38;;;;;;;9.73;7.90;;;;;;;5.21;47.62;100505.97;10365635;28;20122;-56
2021/04/09 00:42:41;;;;;;;9.15;8.25;;;;;;;5.14;47.96;100499.31;10366224;28;20057;-57
2021/04/09 00:47:43;;;;;;;9.65;8.38;;;;;;;5.07;48.05;100490.00;10368208;28;20096;-56
2021/04/09 00:52:44;;;;;;;10.85;8.32;;;;;;;4.92;48.36;100470.56;10363965;28;20046;-57
2021/04/09 00:57:47;;;;;;;9.98;8.35;;;;;;;4.94;48.48;100480.13;10363207;28;20049;-58
2021/04/09 01:02:48;;;;;;;9.15;8.05;;;;;;;5.02;48.71;100478.88;10355602;28;20057;-57
2021/04/09 01:07:50;;;;;;;10.25;8.70;;;;;;;4.78;48.99;100461.63;10353691;28;20046;-57
2021/04/09 01:12:50;;;;;;;10.05;8.63;;;;;;;4.82;49.09;100466.72;10366960;28;20076;-56
2021/04/09 01:18:03;;;;;;;8.85;8.00;;;;;;;4.69;49.17;100448.06;10366118;28;20078;-57
2021/04/09 01:23:07;;;;;;;12.15;9.00;;;;;;;4.79;49.21;100467.75;10371219;28;20456;-57
2021/04/09 01:28:19;;;;;;;10.43;7.50;;;;;;;4.76;49.30;100473.19;10367093;28;20041;-58
2021/04/09 01:33:24;;;;;;;12.70;8.52;;;;;;;4.73;49.90;100474.19;10368523;28;20115;-58
2021/04/09 01:38:27;;;;;;;;;;;;;;;4.70;50.16;100471.72;10365002;28;20146;-56
2021/04/09 01:43:28;;;;;;;13.77;9.65;;;;;;;4.58;50.39;100457.41;10348507;28;20388;-56
2021/04/09 01:48:31;;;;;;;9.95;8.15;;;;;;;4.57;50.52;100455.69;10360311;28;20053;-57
2021/04/09 01:53:34;;;;;;;9.98;8.27;;;;;;;4.57;50.34;100455.69;10358946;28;20045;-57
2021/04/09 01:58:37;;;;;;;10.55;8.38;;;;;;;4.46;50.66;100436.94;10358453;28;20045;-58
2021/04/09 02:03:40;;;;;;;11.20;8.45;;;;;;;4.41;50.88;100429.28;10367966;28;20087;-57
2021/04/09 02:08:42;;;;;;;8.88;7.95;;;;;;;4.49;50.92;100442.06;10367821;28;20391;-57
2021/04/09 02:13:43;;;;;;;11.35;8.50;;;;;;;4.48;50.81;100442.97;10366511;28;20115;-57
2021/04/09 02:18:45;;;;;;;9.15;7.82;;;;;;;4.38;51.02;100420.66;10358430;28;20654;-57
2021/04/09 02:23:46;;;;;;;8.85;7.43;;;;;;;4.41;51.04;100438.97;10361558;28;20057;-58
2021/04/09 02:28:47;;;;;;;8.65;7.30;;;;;;;4.42;51.02;100424.84;10352184;28;20536;-57
2021/04/09 02:33:48;;;;;;;11.48;7.65;;;;;;;4.34;50.96;100417.34;10349000;28;20050;-57
2021/04/09 02:38:53;;;;;;;9.82;7.35;;;;;;;4.29;51.61;100418.50;10363174;28;20072;-58
2021/04/09 02:43:56;;;;;;;8.85;6.70;;;;;;;4.31;51.73;100414.00;10361365;28;20072;-61
2021/04/09 02:49:04;;;;;;;9.95;7.93;;;;;;;4.31;51.99;100414.00;10359454;28;20061;-56
2021/04/09 02:54:13;;;;;;;11.07;8.68;;;;;;;4.24;51.71;100410.84;10339410;28;20053;-57
2021/04/09 02:59:15;;;;;;;10.48;8.45;;;;;;;4.21;52.06;100405.75;10350847;28;20096;-56
2021/04/09 03:04:17;;;;;;;9.02;7.75;;;;;;;4.13;52.20;100397.34;10361123;28;20743;-58
2021/04/09 03:09:19;;;;;;;8.50;7.57;;;;;;;4.04;52.60;100398.72;10349081;28;20050;-57
2021/04/09 03:14:21;;;;;;;11.07;7.35;;;;;;;4.04;52.79;100403.97;10361656;28;20074;-59
2021/04/09 03:19:22;;;;;;;8.27;7.32;;;;;;;3.96;52.92;100395.59;10356201;28;20089;-57
2021/04/09 03:24:23;;;;;;;9.52;7.47;;;;;;;3.89;53.42;100390.66;10354834;28;20157;-57
2021/04/09 03:29:24;;;;;;;9.60;7.40;;;;;;;3.94;53.48;100398.31;10360004;28;20133;-57
2021/04/09 03:34:25;;;;;;;9.75;7.50;;;;;;;3.80;53.37;100380.56;10354118;28;20104;-58
2021/04/09 03:39:26;;;;;;;10.73;8.15;;;;;;;3.89;53.43;100387.16;10371211;22;20721;-59
2021/04/09 03:44:27;;;;;;;8.70;7.80;;;;;;;3.84;53.46;100382.13;10377140;28;20050;-59
2021/04/09 03:49:28;;;;;;;9.27;7.22;;;;;;;3.79;53.79;100378.88;10376642;28;21451;-58
2021/04/09 03:54:29;;;;;;;9.43;8.40;;;;;;;3.78;54.13;100371.88;10384786;28;21510;-58
2021/04/09 03:59:30;;;;;;;11.35;9.48;;;;;;;3.69;54.34;100367.09;10377753;28;20486;-58
2021/04/09 04:04:31;;;;;;;10.82;8.68;;;;;;;3.68;53.87;100363.63;10365745;28;20128;-58
2021/04/09 04:09:32;;;;;;;10.32;9.23;;;;;;;3.67;54.16;100369.78;10378653;28;20049;-59
2021/04/09 04:14:33;;;;;;;13.13;7.97;;;;;;;3.63;54.57;100360.34;10378295;28;20547;-59
2021/04/09 04:19:35;;;;;;;11.30;8.45;;;;;;;3.57;54.61;100362.44;10383950;28;20052;-59
2021/04/09 04:24:35;;;;;;;13.02;9.15;;;;;;;3.54;55.07;100366.94;10375523;28;20125;-59
2021/04/09 04:29:37;;;;;;;11.13;9.02;;;;;;;3.43;55.81;100361.34;10382833;28;20115;-58
2021/04/09 04:34:38;;;;;;;10.57;9.35;;;;;;;3.39;55.79;100358.94;10381461;28;20049;-58
2021/04/09 04:39:40;;;;;;;12.35;8.05;;;;;;;3.40;55.59;100356.22;10381412;28;20058;-60
2021/04/09 04:44:41;;;;;;;10.57;8.63;;;;;;;3.44;55.41;100356.91;10383212;28;20053;-58
2021/04/09 04:49:41;;;;;;;12.10;8.77;;;;;;;3.41;55.51;100344.78;10381566;28;20099;-58
2021/04/09 04:54:41;;;;;;;14.00;8.80;;;;;;;3.47;55.75;100343.63;10381357;28;20045;-58
2021/04/09 04:59:43;;;;;;;10.82;9.00;;;;;;;3.54;55.28;100343.25;10367973;28;20308;-58
2021/04/09 05:04:44;;;;;;;16.38;8.90;;;;;;;3.56;55.42;100344.94;10349758;28;20045;-59
2021/04/09 05:09:46;;;;;;;14.02;8.90;;;;;;;3.64;54.97;100348.03;10377062;28;20486;-58
2021/04/09 05:14:47;;;;;;;19.05;9.05;;;;;;;3.71;54.79;100352.09;10377692;28;20139;-59
2021/04/09 05:19:48;;;;;;;11.85;8.82;;;;;;;3.74;54.80;100354.56;10377271;28;20522;-59
2021/04/09 05:24:50;;;;;;;10.00;7.95;;;;;;;3.76;54.36;100339.53;10375223;28;20946;-58
2021/04/09 05:29:51;;;;;;;13.55;9.50;;;;;;;3.79;54.53;100346.44;10375577;28;20061;-60
2021/04/09 05:34:54;;;;;;;11.50;8.90;;;;;;;3.79;54.28;100347.25;10372147;28;20125;-58
2021/04/09 05:39:55;;;;;;;14.27;8.70;;;;;;;3.79;54.24;100341.16;10370993;28;20134;-59
2021/04/09 05:44:56;;;;;;;16.38;9.73;;;;;;;3.85;54.53;100349.59;10380308;28;20076;-59
2021/04/09 05:49:57;;;;;;;13.90;9.15;;;;;;;3.88;54.10;100336.25;10378102;28;20417;-59
2021/04/09 05:54:58;;;;;;;16.42;9.18;;;;;;;3.98;54.24;100341.03;10375107;28;20064;-61
2021/04/09 05:59:59;;;;;;;17.65;10.30;;;;;;;4.04;53.98;100338.13;10373280;28;20057;-58
2021/04/09 06:05:00;;;;;;;18.83;9.52;;;;;;;4.16;54.11;100329.56;10385207;28;20061;-58
2021/04/09 06:10:04;;;;;;;12.77;9.07;;;;;;;4.21;53.43;100330.16;10376626;28;20513;-60
2021/04/09 06:15:07;;;;;;;10.57;8.38;;;;;;;4.49;52.76;100320.81;10375659;28;20042;-60
2021/04/09 06:20:09;;;;;;;13.63;8.50;;;;;;;4.87;52.89;100331.03;10363608;28;20095;-64
2021/04/09 06:25:10;;;;;;;12.27;9.10;;;;;;;5.31;50.89;100326.81;10345458;28;20060;-64
2021/04/09 06:30:12;;;;;;;12.40;8.88;;;;;;;5.40;50.12;100328.06;10355299;28;20049;-60
2021/04/09 06:35:13;;;;;;;10.63;8.15;;;;;;;5.32;50.40;100324.06;10353815;28;20099;-60
2021/04/09 06:40:15;;;;;;;10.40;8.07;;;;;;;5.41;50.18;100333.25;10351159;28;20089;-60
2021/04/09 06:45:16;;;;;;;9.20;8.30;;;;;;;5.38;49.81;100324.69;10350373;28;20146;-58
2021/04/09 06:50:17;;;;;;;8.77;7.38;;;;;;;5.50;49.72;100313.41;10354165;28;20143;-60
2021/04/09 06:55:19;;;;;;;8.77;7.97;;;;;;;5.52;49.69;100314.16;10353459;28;20790;-59
2021/04/09 07:00:30;;;;;;;11.80;7.93;;;;;;;5.58;49.93;100295.31;10356708;28;20144;-68
2021/04/09 07:05:31;;;;;;;10.10;9.00;;;;;;;5.88;48.95;100291.78;10357173;28;20910;-59
2021/04/09 07:10:32;;;;;;;10.70;8.30;;;;;;;5.90;48.73;100303.13;10352161;28;20057;-61
2021/04/09 07:15:38;;;;;;;8.90;7.93;;;;;;;6.08;48.44;100298.53;10353748;28;20124;-60
2021/04/09 07:20:39;;;;;;;13.57;9.50;;;;;;;6.19;47.96;100305.81;10349851;28;20423;-60
2021/04/09 07:25:45;;;;;;;10.60;9.00;;;;;;;6.27;48.08;100298.25;10353845;28;20140;-60
2021/04/09 07:30:52;;;;;;;11.20;8.43;;;;;;;6.45;47.58;100284.84;10360874;28;20053;-59
2021/04/09 07:36:01;;;;;;;10.88;7.97;;;;;;;6.72;47.35;100285.75;10363591;28;20141;-60
2021/04/09 07:41:06;;;;;;;10.75;8.88;;;;;;;6.75;47.17;100278.56;10363605;28;20041;-62
2021/04/09 07:46:19;;;;;;;9.98;7.75;;;;;;;6.77;47.16;100259.00;10362695;28;20053;-62
2021/04/09 07:51:20;;;;;;;9.25;8.23;;;;;;;7.11;46.65;100262.06;10363457;28;22921;-59
2021/04/09 07:56:22;;;;;;;9.07;7.93;;;;;;;7.39;45.50;100250.50;10359639;28;20438;-61
2021/04/09 08:01:26;;;;;;;11.10;8.15;;;;;;;7.69;44.48;100257.31;10360034;28;20046;-58
2021/04/09 08:06:35;;;;;;;9.20;7.70;;;;;;;7.94;43.62;100258.25;10362523;28;20041;-61
2021/04/09 08:11:37;;;;;;;8.55;7.68;;;;;;;7.87;43.64;100243.75;10359833;28;20056;-60
2021/04/09 08:16:46;;;;;;;9.23;7.43;;;;;;;8.02;43.73;100248.00;10362941;28;20127;-60
2021/04/09 08:21:54;;;;;;;14.27;8.07;;;;;;;8.24;43.81;100251.78;10358901;28;20138;-61
2021/04/09 08:26:56;;;;;;;13.85;8.48;;;;;;;8.46;43.29;100256.44;10352979;28;20100;-60
2021/04/09 08:32:02;;;;;;;9.70;7.65;;;;;;;8.95;42.08;100242.25;10360089;28;20070;-59
2021/04/09 08:37:04;;;;;;;10.35;7.78;;;;;;;9.29;41.68;100244.19;10357335;28;20060;-59
2021/04/09 08:42:17;;;;;;;9.60;8.05;;;;;;;9.73;40.89;100232.84;10355853;28;20045;-60
2021/04/09 08:47:20;;;;;;;8.43;7.13;;;;;;;10.01;40.83;100232.50;10357640;28;20060;-59
2021/04/09 08:52:21;;;;;;;9.30;7.95;;;;;;;10.34;40.33;100215.69;10355825;28;20051;-65
2021/04/09 08:57:44;;;;;;;13.23;8.88;;;;;;;10.83;39.16;100202.88;10349553;28;20187;-61
2021/04/09 09:02:49;;;;;;;9.20;8.10;;;;;;;11.42;37.78;100211.34;10356564;28;20621;-59
2021/04/09 09:07:51;;;;;;;11.50;8.10;;;;;;;11.14;37.59;100216.34;10352604;28;20045;-59
2021/04/09 09:13:08;;;;;;;9.32;7.55;;;;;;;11.37;35.53;100210.88;10355591;28;20065;-60
2021/04/09 09:18:31;;;;;;;10.55;7.60;;;;;;;11.36;35.98;100214.53;10358700;28;20085;-60
2021/04/09 09:23:45;;;;;;;9.20;7.60;;;;;;;11.53;35.45;100187.28;10346177;28;20123;-64
2021/04/09 09:29:05;;;;;;;10.32;7.28;;;;;;;12.12;34.71;100193.75;10351575;28;20063;-60
2021/04/09 09:34:23;;;;;;;14.35;7.60;;;;;;;12.71;33.79;100184.03;10354880;28;20888;-60
2021/04/09 09:39:46;;;;;;;7.78;6.75;;;;;;;13.16;33.34;100171.97;10365576;23;20135;-58
2021/04/09 09:44:51;;;;;;;9.38;6.93;;;;;;;13.46;32.60;100158.59;10381524;28;20103;-57
2021/04/09 09:50:10;;;;;;;7.38;6.13;;;;;;;13.54;31.75;100137.31;10382375;28;20137;-56
2021/04/09 09:55:45;;;;;;;8.65;6.40;;;;;;;14.00;31.08;100154.31;10384642;28;20056;-57
2021/04/09 10:00:55;;;;;;;9.32;6.93;;;;;;;14.53;31.07;100146.53;10373264;28;20667;-58
2021/04/09 10:06:08;;;;;;;8.98;6.78;;;;;;;14.80;30.10;100138.47;10380095;28;20072;-56
2021/04/09 10:11:30;;;;;;;11.38;6.68;;;;;;;15.44;29.05;100132.91;10381530;28;20056;-57
2021/04/09 10:16:32;;;;;;;7.32;6.63;;;;;;;16.56;28.41;100111.41;10373291;28;20099;-57
2021/04/09 10:21:39;;;;;;;7.28;6.40;;;;;;;19.09;24.44;100104.41;10372369;28;20096;-56
2021/04/09 10:26:58;;;;;;;6.35;5.75;;;;;;;20.96;21.76;100125.72;10371237;28;20395;-56
2021/04/09 10:32:04;;;;;;;8.60;6.57;;;;;;;20.70;21.41;100111.94;10355284;28;20041;-56
2021/04/09 10:37:06;;;;;;;9.13;5.78;;;;;;;19.85;23.43;100112.41;10375916;28;20049;-59
2021/04/09 10:42:09;;;;;;;6.97;6.28;;;;;;;20.13;22.97;100085.53;10376550;28;20052;-57
2021/04/09 10:47:10;;;;;;;7.13;6.18;;;;;;;21.02;21.53;100083.50;10386335;28;20119;-55
2021/04/09 10:52:13;;;;;;;7.80;5.90;;;;;;;25.01;18.42;100071.13;10372290;28;20414;-54
2021/04/09 10:57:15;;;;;;;;;;;;;;;26.16;16.64;100068.88;10366786;28;20497;-56
2021/04/09 11:02:26;;;;;;;6.85;5.80;;;;;;;23.41;17.98;100065.47;10377156;28;19929;-56
2021/04/09 11:07:46;;;;;;;7.97;6.00;;;;;;;24.87;17.42;100067.69;10381240;28;20050;-58
2021/04/09 11:13:05;;;;;;;5.95;5.35;;;;;;;26.98;15.15;100060.06;10394622;28;20053;-57
2021/04/09 11:18:07;;;;;;;7.57;5.37;;;;;;;25.59;16.07;100045.44;10378794;28;20083;-56
2021/04/09 11:23:11;;;;;;;8.73;5.32;;;;;;;27.51;13.82;100036.41;10383266;28;20116;-56
2021/04/09 11:28:28;;;;;;;5.43;4.93;;;;;;;28.25;13.24;100030.22;10371886;28;20128;-56
2021/04/09 11:33:39;;;;;;;5.07;4.50;;;;;;;28.72;13.88;100007.25;10372789;28;20392;-56
2021/04/09 11:38:40;;;;;;;6.60;5.27;;;;;;;30.33;12.73;100009.81;10378372;28;20057;-56
2021/04/09 11:43:41;;;;;;;5.23;3.63;;;;;;;29.01;14.17;100015.34;10378925;28;20072;-50
2021/04/09 11:48:43;;;;;;;7.30;5.40;;;;;;;30.01;12.72;100011.69;10381914;28;20064;-52
2021/04/09 11:54:03;;;;;;;6.20;4.95;;;;;;;30.67;11.96;100003.25;10383203;28;20517;-56
2021/04/09 11:59:14;;;;;;;6.53;5.03;;;;;;;31.54;10.74;100001.03;10377909;28;20151;-57
2021/04/09 12:04:38;;;;;;;5.45;4.22;;;;;;;33.26;10.04;100004.50;10376630;28;20172;-56
2021/04/09 12:09:41;;;;;;;7.32;4.40;;;;;;;32.20;10.89;99968.47;10376494;28;20482;-56
2021/04/09 12:14:42;;;;;;;7.68;5.47;;;;;;;31.29;12.06;99981.69;10367433;28;20053;-56
2021/04/09 12:19:46;;;;;;;6.25;4.18;;;;;;;30.75;12.62;99991.78;10368423;28;20048;-56
2021/04/09 12:24:47;;;;;;;6.32;4.53;;;;;;;31.36;12.67;99972.09;10376072;28;20049;-56
2021/04/09 12:29:48;;;;;;;5.93;4.88;;;;;;;30.04;13.29;99967.28;10375099;28;20124;-56
2021/04/09 12:34:49;;;;;;;5.25;4.45;;;;;;;30.40;13.18;99959.34;10373882;28;20223;-57
2021/04/09 12:39:52;;;;;;;4.97;4.53;;;;;;;27.00;15.61;99956.88;10374409;28;20052;-59
2021/04/09 12:44:53;;;;;;;9.85;4.55;;;;;;;25.45;17.61;99941.22;10373859;28;20140;-60
2021/04/09 12:49:54;;;;;;;;;;;;;;;23.19;19.30;99937.28;10371241;28;20199;-56
2021/04/09 12:54:55;;;;;;;4.65;4.25;;;;;;;22.64;20.50;99939.47;10379502;28;20397;-55
2021/04/09 12:59:56;;;;;;;7.80;5.43;;;;;;;22.46;19.93;99929.25;10375291;28;20057;-57
2021/04/09 13:05:09;;;;;;;6.70;5.45;;;;;;;22.05;21.21;99925.69;10381463;28;20051;-56
2021/04/09 13:10:11;;;;;;;6.07;5.47;;;;;;;21.76;21.93;99925.00;10370364;28;20095;-56
2021/04/09 13:15:12;;;;;;;7.90;5.72;;;;;;;21.47;21.07;99905.31;10355806;28;20485;-55
2021/04/09 13:20:13;;;;;;;9.45;6.28;;;;;;;21.59;21.44;99910.16;10293176;28;20056;-57
2021/04/09 13:25:14;;;;;;;6.00;5.40;;;;;;;20.93;22.02;99903.44;10286505;28;20053;-57
2021/04/09 13:30:16;;;;;;;7.25;6.10;;;;;;;20.78;22.43;99895.44;10368338;28;20168;-57
2021/04/09 13:35:17;;;;;;;6.25;5.57;;;;;;;21.19;22.59;99894.59;10366645;28;20099;-58
2021/04/09 13:40:18;;;;;;;6.57;5.88;;;;;;;21.38;21.51;99879.47;10367619;28;20080;-58
2021/04/09 13:45:20;;;;;;;7.32;4.70;;;;;;;21.21;19.60;99865.44;10366754;28;20530;-62
2021/04/09 13:50:20;;;;;;;5.40;4.50;;;;;;;20.49;20.77;99871.09;10368892;28;20057;-57
2021/04/09 13:55:21;;;;;;;6.13;5.53;;;;;;;20.17;22.20;99869.00;10368426;28;20103;-55
2021/04/09 14:00:23;;;;;;;5.22;4.72;;;;;;;20.20;21.95;99855.09;10365634;28;20064;-56
2021/04/09 14:05:25;;;;;;;6.28;5.55;;;;;;;19.72;21.96;99851.09;10368026;28;20041;-57
2021/04/09 14:10:26;;;;;;;6.95;5.75;;;;;;;19.30;22.24;99852.75;10364116;28;20095;-58
2021/04/09 14:15:27;;;;;;;7.63;5.30;;;;;;;18.94;22.52;99834.69;10366538;28;20658;-58
2021/04/09 14:20:28;;;;;;;5.72;5.22;;;;;;;18.75;22.78;99837.94;10366809;28;20235;-57
2021/04/09 14:25:29;;;;;;;4.88;4.38;;;;;;;18.31;21.49;99831.50;10361191;28;21109;-58
2021/04/09 14:30:32;;;;;;;7.60;4.78;;;;;;;18.23;21.49;99818.16;10359743;28;20049;-57
2021/04/09 14:35:33;;;;;;;5.18;4.13;;;;;;;18.24;20.97;99820.66;10360415;28;20045;-59
2021/04/09 14:40:33;;;;;;;5.72;4.38;;;;;;;18.34;21.29;99815.81;10366394;28;20207;-57
2021/04/09 14:45:36;;;;;;;5.85;4.22;;;;;;;18.37;20.69;99802.00;10361483;28;20457;-56
2021/04/09 14:50:37;;;;;;;5.03;4.50;;;;;;;18.12;20.96;99809.50;10364148;28;20408;-57
2021/04/09 14:55:38;;;;;;;5.53;4.47;;;;;;;17.96;20.98;99806.94;10363305;28;20057;-57
2021/04/09 15:00:39;;;;;;;5.80;4.32;;;;;;;17.69;21.18;99787.63;10365833;28;20117;-56
2021/04/09 15:05:40;;;;;;;8.35;4.13;;;;;;;17.62;21.46;99810.91;10364252;28;20408;-59
2021/04/09 15:10:41;;;;;;;5.75;5.00;;;;;;;17.43;21.61;99801.44;10366207;28;20049;-57
2021/04/09 15:15:42;;;;;;;7.43;5.53;;;;;;;17.37;21.97;99802.16;10366001;28;20072;-57
2021/04/09 15:20:44;;;;;;;5.50;4.40;;;;;;;17.36;21.78;99787.88;10363125;28;20099;-57
2021/04/09 15:25:45;;;;;;;6.35;3.88;;;;;;;17.39;21.37;99784.84;10363307;28;20068;-57
2021/04/09 15:30:46;;;;;;;5.00;3.60;;;;;;;17.20;21.64;99791.50;10362976;28;20049;-61
2021/04/09 15:35:47;;;;;;;6.13;4.38;;;;;;;17.11;22.27;99771.06;10363321;28;20045;-56
2021/04/09 15:40:49;;;;;;;5.55;4.13;;;;;;;17.03;21.54;99781.88;10387110;22;20045;-70
2021/04/09 15:45:52;;;;;;;5.60;4.40;;;;;;;17.07;22.05;99783.19;10352609;28;20081;-73
2021/04/09 15:50:53;;;;;;;7.82;4.07;;;;;;;16.99;22.39;99800.22;10365683;28;20038;-72
2021/04/09 15:55:54;;;;;;;6.03;4.93;;;;;;;16.71;22.60;99786.38;10369702;28;20123;-73
2021/04/09 16:00:55;;;;;;;4.55;4.15;;;;;;;16.53;22.58;99784.78;10358717;28;20573;-74
2021/04/09 16:05:56;;;;;;;5.10;3.63;;;;;;;16.51;22.47;99781.41;10368727;28;20174;-73
2021/04/09 16:10:57;;;;;;;5.28;3.25;;;;;;;16.64;22.47;99780.88;10369834;28;20061;-72
2021/04/09 16:15:58;;;;;;;4.43;4.03;;;;;;;16.58;21.93;99781.56;10371067;28;20065;-74
2021/04/09 16:20:59;;;;;;;4.88;3.55;;;;;;;16.44;22.44;99781.28;10356641;28;20077;-74
2021/04/09 16:26:00;;;;;;;9.07;4.63;;;;;;;16.43;22.10;99779.59;10402632;28;22540;-75
2021/04/09 16:31:01;;;;;;;3.40;3.10;;;;;;;16.36;22.65;99775.94;10349792;28;20632;-74
2021/04/09 16:36:02;;;;;;;3.67;3.38;;;;;;;16.31;23.24;99772.09;10363481;28;20484;-72
2021/04/09 16:41:03;;;;;;;4.18;3.35;;;;;;;16.32;23.24;99773.75;10349376;28;20136;-72
2021/04/09 16:46:04;;;;;;;5.10;3.33;;;;;;;16.31;23.00;99785.53;10358956;28;20128;-72
2021/04/09 16:51:06;;;;;;;3.78;3.22;;;;;;;16.23;23.03;99789.91;10344899;28;20045;-72
2021/04/09 16:56:07;;;;;;;4.07;3.53;;;;;;;16.07;22.92;99780.03;10351226;28;20581;-72
2021/04/09 17:01:09;;;;;;;6.05;3.03;;;;;;;16.03;23.53;99775.16;10344942;28;20049;-71
2021/04/09 17:06:10;;;;;;;6.63;3.30;;;;;;;16.07;23.65;99774.66;10360281;28;20120;-73
2021/04/09 17:11:11;;;;;;;5.22;4.32;;;;;;;16.06;24.24;99773.00;10358656;28;20057;-74
2021/04/09 17:16:11;;;;;;;4.45;3.55;;;;;;;16.09;24.30;99769.13;10362795;28;20046;-71
2021/04/09 17:21:19;;;;;;;6.97;3.35;;;;;;;16.13;24.80;99773.16;10357075;28;20057;-73
2021/04/09 17:26:20;;;;;;;5.10;3.90;;;;;;;16.07;24.72;99776.50;10365974;28;20049;-71
2021/04/09 17:31:21;;;;;;;5.60;3.60;;;;;;;15.96;24.99;99771.50;10363800;28;20068;-72
2021/04/09 17:36:22;;;;;;;6.53;4.80;;;;;;;15.96;25.41;99774.16;10362182;28;20104;-74
2021/04/09 17:41:23;;;;;;;8.90;4.78;;;;;;;15.87;25.59;99757.25;10361596;28;20046;-73
2021/04/09 17:46:24;;;;;;;4.57;3.97;;;;;;;15.79;25.84;99760.78;10362609;28;20046;-73
2021/04/09 17:51:25;;;;;;;5.68;4.10;;;;;;;15.76;26.21;99753.03;10362264;28;20077;-73
2021/04/09 17:56:27;;;;;;;5.40;4.15;;;;;;;15.77;26.20;99757.41;10358370;28;20129;-72
2021/04/09 18:01:28;;;;;;;5.30;4.13;;;;;;;15.65;26.20;99758.75;10364211;28;20050;-74
2021/04/09 18:06:29;;;;;;;6.10;3.30;;;;;;;15.50;25.93;99756.75;10371617;28;20197;-73
2021/04/09 18:11:30;;;;;;;3.90;3.15;;;;;;;15.42;26.59;99758.56;10367952;28;20049;-75
2021/04/09 18:16:31;;;;;;;5.88;3.90;;;;;;;15.43;26.29;99757.59;10358823;28;20565;-72
2021/04/09 18:21:33;;;;;;;6.75;4.20;;;;;;;15.34;26.87;99762.97;10371317;28;20547;-72
2021/04/09 18:26:45;;;;;;;8.40;3.42;;;;;;;15.24;26.45;99761.41;10366319;28;21364;-74
2021/04/09 18:31:46;;;;;;;5.53;3.85;;;;;;;15.16;27.05;99757.75;10363775;28;20136;-72
2021/04/09 18:36:48;;;;;;;4.25;3.85;;;;;;;15.10;26.75;99761.09;10366769;28;20581;-71
2021/04/09 18:41:49;;;;;;;9.75;4.70;;;;;;;15.10;27.18;99766.44;10363459;28;20046;-71
2021/04/09 18:46:51;;;;;;;5.53;4.57;;;;;;;15.08;27.54;99778.31;10368410;28;20148;-72
2021/04/09 18:51:52;;;;;;;6.57;5.07;;;;;;;15.02;28.19;99772.59;10391274;28;20040;-71
2021/04/09 18:56:53;;;;;;;6.50;4.90;;;;;;;15.10;27.62;99781.66;10373221;28;20419;-71
2021/04/09 19:01:55;;;;;;;8.18;6.03;;;;;;;15.01;28.55;99772.75;10364918;28;20054;-72
2021/04/09 19:06:57;;;;;;;7.28;5.88;;;;;;;15.00;28.92;99785.34;10361748;28;20203;-72
2021/04/09 19:11:58;;;;;;;7.75;5.40;;;;;;;15.00;29.83;99787.19;10362230;28;20057;-73
2021/04/09 19:16:59;;;;;;;7.03;4.82;;;;;;;14.96;29.63;99778.63;10359717;28;20471;-72
2021/04/09 19:22:00;;;;;;;8.70;4.22;;;;;;;15.00;29.86;99789.88;10362108;28;20458;-73
2021/04/09 19:27:01;;;;;;;6.65;5.10;;;;;;;14.98;30.14;99794.53;10372352;28;20130;-72
2021/04/09 19:32:03;;;;;;;7.50;5.07;;;;;;;14.91;29.72;99785.50;10369344;28;20079;-73
2021/04/09 19:37:05;;;;;;;6.80;5.50;;;;;;;14.89;31.08;99779.44;10384622;28;20060;-73
2021/04/09 19:42:06;;;;;;;7.38;5.13;;;;;;;14.87;30.53;99774.25;10398682;28;20076;-72
2021/04/09 19:47:07;;;;;;;7.43;6.68;;;;;;;14.87;30.96;99776.09;10372895;28;20052;-71
2021/04/09 19:52:11;;;;;;;7.50;6.30;;;;;;;14.82;30.25;99769.38;10371988;28;20042;-71
2021/04/09 19:57:12;;;;;;;7.22;4.95;;;;;;;14.71;30.31;99753.59;10368756;28;20136;-73
2021/04/09 20:02:13;;;;;;;5.88;3.95;;;;;;;14.69;30.69;99774.34;10369004;28;20072;-73
2021/04/09 20:07:14;;;;;;;7.57;4.60;;;;;;;14.68;30.50;99759.28;10370580;28;20046;-73
2021/04/09 20:12:15;;;;;;;5.25;3.80;;;;;;;14.76;31.07;99756.63;10363559;28;20061;-73
2021/04/09 20:17:18;;;;;;;5.60;4.57;;;;;;;14.82;31.20;99760.50;10347229;28;20045;-72
2021/04/09 20:22:19;;;;;;;8.95;5.60;;;;;;;14.84;31.94;99756.66;10365022;28;20071;-73
2021/04/09 20:27:20;;;;;;;6.93;4.50;;;;;;;14.84;31.96;99755.81;10365077;28;20054;-71
2021/04/09 20:32:21;;;;;;;9.32;5.05;;;;;;;14.84;32.76;99759.31;10366753;28;20137;-72
2021/04/09 20:37:22;;;;;;;7.15;5.28;;;;;;;14.74;33.18;99749.75;10363902;28;20041;-72
2021/04/09 20:42:23;;;;;;;6.07;5.20;;;;;;;14.73;33.57;99748.94;10367326;28;20423;-74
2021/04/09 20:47:25;;;;;;;10.93;5.13;;;;;;;14.75;33.52;99752.28;10366778;28;20530;-74
2021/04/09 20:52:26;;;;;;;5.20;4.70;;;;;;;14.64;33.79;99741.88;10362525;28;20515;-73
2021/04/09 20:57:27;;;;;;;7.30;4.85;;;;;;;14.55;34.04;99738.28;10361471;28;20053;-74
2021/04/09 21:02:28;;;;;;;8.88;5.20;;;;;;;14.49;34.20;99747.81;10363443;28;20049;-73
2021/04/09 21:07:29;;;;;;;7.30;5.97;;;;;;;14.39;34.40;99736.38;10375923;28;20050;-71
2021/04/09 21:12:30;;;;;;;7.53;6.40;;;;;;;14.35;34.50;99742.22;10383183;28;20046;-70
2021/04/09 21:17:31;;;;;;;8.07;5.88;;;;;;;14.30;35.37;99748.88;10390091;28;20073;-72
2021/04/09 21:22:32;;;;;;;8.38;5.35;;;;;;;14.38;35.21;99758.81;10409567;28;20463;-71
2021/04/09 21:27:33;;;;;;;12.50;5.82;;;;;;;14.38;35.58;99766.00;10382590;28;20053;-71
2021/04/09 21:32:34;;;;;;;7.00;4.28;;;;;;;14.32;35.99;99762.97;10370098;28;20045;-72
2021/04/09 21:37:34;;;;;;;5.55;3.90;;;;;;;14.33;35.95;99769.97;10365203;28;20136;-71
2021/04/09 21:47:40;;;;;;;6.60;3.70;;;;;;;14.26;37.57;99750.22;10353572;22;20141;-58
2021/04/09 21:52:42;;;;;;;4.95;3.10;;;;;;;14.17;38.19;99761.03;10369166;28;20133;-57
2021/04/09 21:57:43;;;;;;;5.85;3.60;;;;;;;13.86;38.86;99732.09;10366833;28;20053;-56
2021/04/09 22:02:44;;;;;;;3.58;3.25;;;;;;;13.99;39.56;99761.94;10366826;28;20498;-58
2021/04/09 22:07:46;;;;;;;6.50;3.47;;;;;;;14.11;40.36;99758.00;10372036;28;20574;-59
2021/04/09 22:12:47;;;;;;;6.25;3.22;;;;;;;14.11;41.70;99771.38;10365661;28;20120;-58
2021/04/09 22:17:48;;;;;;;6.70;3.35;;;;;;;14.07;44.78;99753.97;10373344;28;20046;-57
2021/04/09 22:22:49;;;;;;;4.20;3.38;;;;;;;13.97;46.28;99735.31;10362107;28;20552;-57
2021/04/09 22:28:22;;;;;;;5.32;3.72;;;;;;;13.94;47.89;99721.44;10367945;28;20532;-57
2021/04/09 22:33:23;;;;;;;7.43;4.55;;;;;;;13.95;47.95;99731.16;10371000;28;20050;-59
2021/04/09 22:38:24;;;;;;;4.53;3.70;;;;;;;13.97;48.34;99711.25;10366689;28;20461;-58
2021/04/09 22:43:25;;;;;;;5.60;4.05;;;;;;;13.87;50.18;99707.00;10364232;28;20164;-58
2021/04/09 22:48:26;;;;;;;6.07;4.30;;;;;;;13.84;50.15;99715.34;10369219;28;20171;-61
2021/04/09 22:53:27;;;;;;;6.13;4.07;;;;;;;13.82;50.29;99722.69;10371381;28;20049;-56
2021/04/09 22:58:28;;;;;;;6.60;3.92;;;;;;;13.79;50.02;99719.31;10361463;28;20054;-58
2021/04/09 23:03:29;;;;;;;6.03;4.65;;;;;;;13.77;50.68;99715.97;10363061;28;20049;-58
2021/04/09 23:08:30;;;;;;;5.55;4.63;;;;;;;13.70;51.19;99706.91;10365580;28;20049;-59
2021/04/09 23:13:31;;;;;;;7.85;4.85;;;;;;;13.76;50.66;99722.31;10365760;28;20642;-59
2021/04/09 23:18:32;;;;;;;6.47;4.82;;;;;;;13.68;52.73;99722.28;10370660;28;20490;-58
2021/04/09 23:23:33;;;;;;;10.93;5.78;;;;;;;13.67;52.00;99731.28;10361779;28;20072;-58
2021/04/09 23:28:34;;;;;;;10.30;5.85;;;;;;;13.61;50.35;99729.25;10355598;28;20053;-57